sensor_id;sensor_type;location;lat;lon;timestamp;pressure;altitude;pressure_sealevel;temperature;humidity
51928;BME280;37953;52.806;18.270;2022-09-09T01:58:34;100237.09;;;15.38;100.00
51928;BME280;37953;52.806;18.270;2022-09-09T02:01:07;100231.13;;;15.33;100.00
51928;BME280;37953;52.806;18.270;2022-09-09T02:03:35;100240.75;;;15.31;100.00
51928;BME280;37953;52.806;18.270;2022-09-09T02:06:27;100240.69;;;15.34;100.00
51928;BME280;37953;52.806;18.270;2022-09-09T02:08:57;100233.84;;;15.27;100.00
51928;BME280;37953;52.806;18.270;2022-09-09T02:11:27;100237.34;;;15.26;100.00
51928;BME280;37953;52.806;18.270;2022-09-09T02:13:57;100236.50;;;15.25;100.00
51928;BME280;37953;52.806;18.270;2022-09-09T02:16:32;100233.03;;;15.23;100.00
51928;BME280;37953;52.806;18.270;2022-09-09T02:21:33;100240.06;;;15.21;100.00
51928;BME280;37953;52.806;18.270;2022-09-09T02:24:05;100240.13;;;15.18;100.00
51928;BME280;37953;52.806;18.270;2022-09-09T02:26:38;100240.13;;;15.18;100.00
51928;BME280;37953;52.806;18.270;2022-09-09T02:29:10;100232.38;;;15.14;100.00
51928;BME280;37953;52.806;18.270;2022-09-09T02:31:58;100243.59;;;15.19;100.00
51928;BME280;37953;52.806;18.270;2022-09-09T02:34:33;100245.41;;;15.17;100.00
51928;BME280;37953;52.806;18.270;2022-09-09T02:37:03;100246.31;;;15.16;100.00
51928;BME280;37953;52.806;18.270;2022-09-09T02:39:29;100248.97;;;15.13;100.00
51928;BME280;37953;52.806;18.270;2022-09-09T02:41:55;100247.19;;;15.15;100.00
51928;BME280;37953;52.806;18.270;2022-09-09T02:44:22;100247.25;;;15.12;100.00
51928;BME280;37953;52.806;18.270;2022-09-09T02:50:13;100252.38;;;15.18;100.00
51928;BME280;37953;52.806;18.270;2022-09-09T02:56:00;100247.25;;;15.12;100.00
51928;BME280;37953;52.806;18.270;2022-09-09T02:58:29;100248.22;;;15.06;100.00
51928;BME280;37953;52.806;18.270;2022-09-09T03:00:56;100257.00;;;15.03;100.00
51928;BME280;37953;52.806;18.270;2022-09-09T03:03:23;100253.53;;;15.03;100.00
51928;BME280;37953;52.806;18.270;2022-09-09T03:05:49;100257.88;;;15.02;100.00
51928;BME280;37953;52.806;18.270;2022-09-09T03:08:16;100255.31;;;15.01;100.00
51928;BME280;37953;52.806;18.270;2022-09-09T03:10:43;100264.88;;;15.00;100.00
51928;BME280;37953;52.806;18.270;2022-09-09T03:13:09;100254.47;;;14.99;100.00
51928;BME280;37953;52.806;18.270;2022-09-09T03:15:36;100259.72;;;14.99;100.00
51928;BME280;37953;52.806;18.270;2022-09-09T03:18:03;100252.72;;;14.98;100.00
51928;BME280;37953;52.806;18.270;2022-09-09T03:20:29;100246.66;;;14.96;100.00
51928;BME280;37953;52.806;18.270;2022-09-09T03:22:57;100254.53;;;14.94;100.00
51928;BME280;37953;52.806;18.270;2022-09-09T03:25:24;100252.84;;;14.92;100.00
51928;BME280;37953;52.806;18.270;2022-09-09T03:27:53;100251.97;;;14.93;100.00
51928;BME280;37953;52.806;18.270;2022-09-09T03:30:22;100252.91;;;14.90;100.00
51928;BME280;37953;52.806;18.270;2022-09-09T03:32:53;100252.00;;;14.91;100.00
51928;BME280;37953;52.806;18.270;2022-09-09T03:35:21;100260.69;;;14.92;100.00
51928;BME280;37953;52.806;18.270;2022-09-09T03:37:47;100260.69;;;14.92;100.00
51928;BME280;37953;52.806;18.270;2022-09-09T03:40:13;100271.16;;;14.92;100.00
51928;BME280;37953;52.806;18.270;2022-09-09T03:42:40;100262.44;;;14.91;100.00
51928;BME280;37953;52.806;18.270;2022-09-09T03:45:09;100274.66;;;14.92;100.00
51928;BME280;37953;52.806;18.270;2022-09-09T03:47:36;100269.44;;;14.92;100.00
51928;BME280;37953;52.806;18.270;2022-09-09T03:50:03;100267.72;;;14.90;100.00
51928;BME280;37953;52.806;18.270;2022-09-09T03:52:35;100276.38;;;14.92;100.00
51928;BME280;37953;52.806;18.270;2022-09-09T03:55:01;100274.69;;;14.89;100.00
51928;BME280;37953;52.806;18.270;2022-09-09T03:57:27;100278.22;;;14.88;100.00
51928;BME280;37953;52.806;18.270;2022-09-09T03:59:53;100273.84;;;14.87;100.00
51928;BME280;37953;52.806;18.270;2022-09-09T04:02:19;100273.84;;;14.87;100.00
51928;BME280;37953;52.806;18.270;2022-09-09T04:04:52;100272.16;;;14.86;100.00
51928;BME280;37953;52.806;18.270;2022-09-09T04:07:17;100266.91;;;14.86;100.00
51928;BME280;37953;52.806;18.270;2022-09-09T04:09:43;100264.31;;;14.86;100.00
51928;BME280;37953;52.806;18.270;2022-09-09T04:12:10;100265.16;;;14.86;100.00
51928;BME280;37953;52.806;18.270;2022-09-09T04:14:39;100264.25;;;14.88;100.00
51928;BME280;37953;52.806;18.270;2022-09-09T04:17:05;100265.09;;;14.90;100.00
51928;BME280;37953;52.806;18.270;2022-09-09T04:19:32;100264.22;;;14.91;100.00
51928;BME280;37953;52.806;18.270;2022-09-09T04:21:58;100263.34;;;14.90;100.00
51928;BME280;37953;52.806;18.270;2022-09-09T04:24:24;100265.94;;;14.92;100.00
51928;BME280;37953;52.806;18.270;2022-09-09T04:26:53;100263.28;;;14.93;100.00
51928;BME280;37953;52.806;18.270;2022-09-09T04:29:19;100258.16;;;14.89;100.00
51928;BME280;37953;52.806;18.270;2022-09-09T04:31:44;100271.13;;;14.93;100.00
51928;BME280;37953;52.806;18.270;2022-09-09T04:34:10;100272.91;;;14.91;100.00
51928;BME280;37953;52.806;18.270;2022-09-09T04:36:36;100278.13;;;14.93;100.00
51928;BME280;37953;52.806;18.270;2022-09-09T04:39:06;100272.03;;;14.92;100.00
51928;BME280;37953;52.806;18.270;2022-09-09T04:41:32;100275.50;;;14.93;100.00
51928;BME280;37953;52.806;18.270;2022-09-09T04:43:58;100280.75;;;14.93;100.00
51928;BME280;37953;52.806;18.270;2022-09-09T04:46:26;100285.06;;;14.94;100.00
51928;BME280;37953;52.806;18.270;2022-09-09T04:48:52;100284.22;;;14.93;100.00
51928;BME280;37953;52.806;18.270;2022-09-09T04:51:19;100283.34;;;14.93;100.00
51928;BME280;37953;52.806;18.270;2022-09-09T04:53:45;100285.13;;;14.92;100.00
51928;BME280;37953;52.806;18.270;2022-09-09T04:56:15;100282.50;;;14.92;100.00
51928;BME280;37953;52.806;18.270;2022-09-09T04:58:41;100279.91;;;14.91;100.00
51928;BME280;37953;52.806;18.270;2022-09-09T05:01:14;100272.91;;;14.93;100.00
51928;BME280;37953;52.806;18.270;2022-09-09T05:03:59;100273.53;;;15.05;100.00
51928;BME280;37953;52.806;18.270;2022-09-09T05:06:25;100288.50;;;14.97;100.00
51928;BME280;37953;52.806;18.270;2022-09-09T05:08:51;100286.84;;;14.93;100.00
51928;BME280;37953;52.806;18.270;2022-09-09T05:11:18;100286.84;;;14.93;100.00
51928;BME280;37953;52.806;18.270;2022-09-09T05:13:54;100279.84;;;14.94;100.00
51928;BME280;37953;52.806;18.270;2022-09-09T05:16:26;100281.56;;;14.95;100.00
51928;BME280;37953;52.806;18.270;2022-09-09T05:18:52;100278.97;;;14.95;100.00
51928;BME280;37953;52.806;18.270;2022-09-09T05:21:21;100289.44;;;14.95;100.00
51928;BME280;37953;52.806;18.270;2022-09-09T05:23:47;100288.53;;;14.94;100.00
51928;BME280;37953;52.806;18.270;2022-09-09T05:26:15;100291.13;;;14.96;100.00
51928;BME280;37953;52.806;18.270;2022-09-09T05:28:42;100294.66;;;14.95;100.00
51928;BME280;37953;52.806;18.270;2022-09-09T05:31:09;100300.75;;;14.95;100.00
51928;BME280;37953;52.806;18.270;2022-09-09T05:33:40;100295.28;;;15.07;100.00
51928;BME280;37953;52.806;18.270;2022-09-09T05:36:12;100303.25;;;15.01;100.00
51928;BME280;37953;52.806;18.270;2022-09-09T05:38:41;100302.41;;;15.01;100.00
51928;BME280;37953;52.806;18.270;2022-09-09T05:41:08;100300.66;;;15.00;100.00
51928;BME280;37953;52.806;18.270;2022-09-09T05:43:35;100299.78;;;15.01;100.00
51928;BME280;37953;52.806;18.270;2022-09-09T05:46:14;100306.72;;;15.03;100.00
51928;BME280;37953;52.806;18.270;2022-09-09T05:48:41;100310.25;;;15.01;100.00
51928;BME280;37953;52.806;18.270;2022-09-09T05:51:10;100306.72;;;15.03;100.00
51928;BME280;37953;52.806;18.270;2022-09-09T05:53:38;100301.47;;;15.03;100.00
51928;BME280;37953;52.806;18.270;2022-09-09T05:56:06;100307.56;;;15.02;100.00
51928;BME280;37953;52.806;18.270;2022-09-09T05:58:39;100288.50;;;14.97;100.00
51928;BME280;37953;52.806;18.270;2022-09-09T06:01:18;100295.28;;;15.07;100.00
51928;BME280;37953;52.806;18.270;2022-09-09T06:03:46;100300.53;;;15.06;100.00
51928;BME280;37953;52.806;18.270;2022-09-09T06:06:14;100302.28;;;15.07;100.00
51928;BME280;37953;52.806;18.270;2022-09-09T06:08:42;100310.09;;;15.09;100.00
51928;BME280;37953;52.806;18.270;2022-09-09T06:11:18;100318.81;;;15.09;100.00
51928;BME280;37953;52.806;18.270;2022-09-09T06:13:44;100325.75;;;15.10;100.00
51928;BME280;37953;52.806;18.270;2022-09-09T06:16:18;100324.84;;;15.11;100.00
51928;BME280;37953;52.806;18.270;2022-09-09T06:18:44;100326.63;;;15.11;100.00
51928;BME280;37953;52.806;18.270;2022-09-09T06:21:19;100324.84;;;15.13;100.00
51928;BME280;37953;52.806;18.270;2022-09-09T06:23:47;100332.69;;;15.13;100.00
51928;BME280;37953;52.806;18.270;2022-09-09T06:26:46;100328.19;;;15.19;100.00
51928;BME280;37953;52.806;18.270;2022-09-09T07:27:55;100367.09;;;15.39;100.00
51928;BME280;37953;52.806;18.270;2022-09-09T07:30:22;100362.81;;;15.35;100.00
51928;BME280;37953;52.806;18.270;2022-09-09T07:32:51;100367.16;;;15.36;100.00
51928;BME280;37953;52.806;18.270;2022-09-09T07:35:17;100376.66;;;15.42;100.00
51928;BME280;37953;52.806;18.270;2022-09-09T07:37:43;100382.72;;;15.44;100.00
51928;BME280;37953;52.806;18.270;2022-09-09T07:40:10;100379.19;;;15.46;100.00
51928;BME280;37953;52.806;18.270;2022-09-09T07:42:36;100381.78;;;15.48;100.00
51928;BME280;37953;52.806;18.270;2022-09-09T07:45:04;100386.09;;;15.51;100.00
51928;BME280;37953;52.806;18.270;2022-09-09T07:47:30;100383.44;;;15.52;100.00
51928;BME280;37953;52.806;18.270;2022-09-09T07:49:56;100384.28;;;15.54;100.00
51928;BME280;37953;52.806;18.270;2022-09-09T07:52:23;100389.50;;;15.56;100.00
51928;BME280;37953;52.806;18.270;2022-09-09T07:54:49;100393.81;;;15.58;100.00
51928;BME280;37953;52.806;18.270;2022-09-09T07:57:15;100400.72;;;15.62;100.00
51928;BME280;37953;52.806;18.270;2022-09-09T07:59:42;100394.56;;;15.63;100.00
51928;BME280;37953;52.806;18.270;2022-09-09T08:02:09;100397.16;;;15.66;100.00
51928;BME280;37953;52.806;18.270;2022-09-09T08:04:35;100399.72;;;15.68;100.00
51928;BME280;37953;52.806;18.270;2022-09-09T08:07:04;100401.44;;;15.71;100.00
51928;BME280;37953;52.806;18.270;2022-09-09T08:09:30;100412.72;;;15.74;100.00
51928;BME280;37953;52.806;18.270;2022-09-09T08:11:57;100412.69;;;15.77;100.00
51928;BME280;37953;52.806;18.270;2022-09-09T08:14:24;100416.16;;;15.78;100.00
51928;BME280;37953;52.806;18.270;2022-09-09T08:16:51;100419.59;;;15.81;100.00
51928;BME280;37953;52.806;18.270;2022-09-09T08:19:19;100424.78;;;15.83;100.00
51928;BME280;37953;52.806;18.270;2022-09-09T08:21:45;100418.66;;;15.84;100.00
51928;BME280;37953;52.806;18.270;2022-09-09T08:24:12;100433.44;;;15.86;100.00
51928;BME280;37953;52.806;18.270;2022-09-09T08:26:46;100424.72;;;15.87;100.00
51928;BME280;37953;52.806;18.270;2022-09-09T08:29:13;100428.19;;;15.86;100.00
51928;BME280;37953;52.806;18.270;2022-09-09T08:31:42;100436.88;;;15.90;100.00
51928;BME280;37953;52.806;18.270;2022-09-09T08:34:13;100434.19;;;15.92;100.00
51928;BME280;37953;52.806;18.270;2022-09-09T08:36:42;100442.06;;;15.92;100.00
51928;BME280;37953;52.806;18.270;2022-09-09T08:39:10;100436.78;;;15.95;100.00
51928;BME280;37953;52.806;18.270;2022-09-09T08:50:18;100436.53;;;16.07;100.00
51928;BME280;37953;52.806;18.270;2022-09-09T08:55:42;100448.69;;;16.11;100.00
51928;BME280;37953;52.806;18.270;2022-09-09T08:58:21;100443.38;;;16.14;100.00
51928;BME280;37953;52.806;18.270;2022-09-09T09:10:15;100456.22;;;16.26;100.00
51928;BME280;37953;52.806;18.270;2022-09-09T09:13:01;100450.16;;;16.24;100.00
51928;BME280;37953;52.806;18.270;2022-09-09T09:15:35;100450.06;;;16.27;100.00
51928;BME280;37953;52.806;18.270;2022-09-09T09:18:03;100451.81;;;16.28;100.00
51928;BME280;37953;52.806;18.270;2022-09-09T09:20:42;100458.75;;;16.31;100.00
51928;BME280;37953;52.806;18.270;2022-09-09T09:24:14;100465.69;;;16.34;100.00
51928;BME280;37953;52.806;18.270;2022-09-09T09:26:21;100463.06;;;16.34;100.00
51928;BME280;37953;52.806;18.270;2022-09-09T09:28:56;100455.19;;;16.34;100.00
51928;BME280;37953;52.806;18.270;2022-09-09T09:31:23;100456.94;;;16.33;100.00
51928;BME280;37953;52.806;18.270;2022-09-09T09:33:54;100461.25;;;16.37;100.00
51928;BME280;37953;52.806;18.270;2022-09-09T09:36:38;100458.59;;;16.39;100.00
51928;BME280;37953;52.806;18.270;2022-09-09T09:39:33;100455.03;;;16.41;100.00
51928;BME280;37953;52.806;18.270;2022-09-09T09:42:12;100456.75;;;16.42;100.00
51928;BME280;37953;52.806;18.270;2022-09-09T09:44:40;100458.50;;;16.43;100.00
51928;BME280;37953;52.806;18.270;2022-09-09T09:47:21;100464.56;;;16.45;100.00
51928;BME280;37953;52.806;18.270;2022-09-09T09:49:56;100456.66;;;16.47;100.00
51928;BME280;37953;52.806;18.270;2022-09-09T09:52:26;100462.78;;;16.47;100.00
51928;BME280;37953;52.806;18.270;2022-09-09T09:54:55;100455.75;;;16.48;100.00
51928;BME280;37953;52.806;18.270;2022-09-09T09:57:27;100453.94;;;16.52;100.00
51928;BME280;37953;52.806;18.270;2022-09-09T10:00:22;100454.69;;;16.57;100.00
51928;BME280;37953;52.806;18.270;2022-09-09T10:02:54;100465.16;;;16.58;100.00
51928;BME280;37953;52.806;18.270;2022-09-09T10:05:32;100459.88;;;16.60;100.00
51928;BME280;37953;52.806;18.270;2022-09-09T10:08:15;100463.34;;;16.62;100.00
51928;BME280;37953;52.806;18.270;2022-09-09T10:13:44;100463.25;;;16.65;100.00
51928;BME280;37953;52.806;18.270;2022-09-09T10:16:35;100468.38;;;16.71;100.00
51928;BME280;37953;52.806;18.270;2022-09-09T10:19:31;100482.28;;;16.75;100.00
51928;BME280;37953;52.806;18.270;2022-09-09T10:31:32;100472.38;;;16.89;100.00
51928;BME280;37953;52.806;18.270;2022-09-09T10:37:17;100479.22;;;16.95;100.00
51928;BME280;37953;52.806;18.270;2022-09-09T10:42:58;100484.22;;;17.05;100.00
51928;BME280;37953;52.806;18.270;2022-09-09T10:45:36;100480.63;;;17.09;100.00
51928;BME280;37953;52.806;18.270;2022-09-09T10:53:37;100476.72;;;17.27;100.00
51928;BME280;37953;52.806;18.270;2022-09-09T10:56:31;100480.91;;;17.33;100.00
51928;BME280;37953;52.806;18.270;2022-09-09T10:59:10;100472.88;;;17.39;100.00
51928;BME280;37953;52.806;18.270;2022-09-09T11:02:01;100479.63;;;17.49;100.00
51928;BME280;37953;52.806;18.270;2022-09-09T11:04:40;100478.66;;;17.54;100.00
51928;BME280;37953;52.806;18.270;2022-09-09T11:07:13;100478.53;;;17.58;100.00
51928;BME280;37953;52.806;18.270;2022-09-09T11:10:02;100479.31;;;17.62;100.00
51928;BME280;37953;52.806;18.270;2022-09-09T11:12:38;100477.41;;;17.68;100.00
51928;BME280;37953;52.806;18.270;2022-09-09T11:15:12;100488.69;;;17.72;100.00
51928;BME280;37953;52.806;18.270;2022-09-09T11:17:53;100484.09;;;17.80;100.00
51928;BME280;37953;52.806;18.270;2022-09-09T11:20:22;100472.63;;;17.84;100.00
51928;BME280;37953;52.806;18.270;2022-09-09T11:25:42;100488.97;;;17.96;100.00
51928;BME280;37953;52.806;18.270;2022-09-09T11:42:35;100477.47;;;18.00;100.00
51928;BME280;37953;52.806;18.270;2022-09-09T11:51:02;100477.19;;;18.09;100.00
51928;BME280;37953;52.806;18.270;2022-09-09T11:53:28;100479.00;;;18.07;100.00
51928;BME280;37953;52.806;18.270;2022-09-09T11:56:03;100479.81;;;18.09;100.00
51928;BME280;37953;52.806;18.270;2022-09-09T11:58:36;100467.63;;;18.06;100.00
51928;BME280;37953;52.806;18.270;2022-09-09T12:01:37;100479.69;;;18.14;100.00
51928;BME280;37953;52.806;18.270;2022-09-09T12:17:58;100457.28;;;18.31;100.00
51928;BME280;37953;52.806;18.270;2022-09-09T12:20:41;100463.34;;;18.34;100.00
51928;BME280;37953;52.806;18.270;2022-09-09T12:30:03;100456.75;;;18.50;100.00
51928;BME280;37953;52.806;18.270;2022-09-09T12:33:02;100453.06;;;18.54;100.00
51928;BME280;37953;52.806;18.270;2022-09-09T12:35:35;100454.72;;;18.58;100.00
51928;BME280;37953;52.806;18.270;2022-09-09T12:38:17;100442.19;;;18.66;100.00
51928;BME280;37953;52.806;18.270;2022-09-09T12:40:57;100448.06;;;18.75;100.00
51928;BME280;37953;52.806;18.270;2022-09-09T12:43:25;100439.97;;;18.82;100.00
51928;BME280;37953;52.806;18.270;2022-09-09T12:46:00;100446.78;;;18.88;100.00
51928;BME280;37953;52.806;18.270;2022-09-09T12:48:35;100435.25;;;18.92;100.00
51928;BME280;37953;52.806;18.270;2022-09-09T12:51:03;100434.22;;;18.98;100.00
51928;BME280;37953;52.806;18.270;2022-09-09T12:53:33;100437.56;;;19.03;100.00
51928;BME280;37953;52.806;18.270;2022-09-09T12:56:06;100432.16;;;19.07;100.00
51928;BME280;37953;52.806;18.270;2022-09-09T12:58:37;100432.69;;;19.17;100.00
51928;BME280;37953;52.806;18.270;2022-09-09T13:01:05;100426.31;;;19.24;100.00
51928;BME280;37953;52.806;18.270;2022-09-09T13:03:33;100424.38;;;19.29;100.00
51928;BME280;37953;52.806;18.270;2022-09-09T13:06:23;100424.13;;;19.37;100.00
51928;BME280;37953;52.806;18.270;2022-09-09T13:08:54;100426.63;;;19.40;100.00
51928;BME280;37953;52.806;18.270;2022-09-09T13:11:32;100418.56;;;19.45;100.00
51928;BME280;37953;52.806;18.270;2022-09-09T13:13:59;100413.25;;;19.46;100.00
51928;BME280;37953;52.806;18.270;2022-09-09T13:16:30;100410.59;;;19.48;100.00
51928;BME280;37953;52.806;18.270;2022-09-09T13:18:59;100419.28;;;19.50;100.00
51928;BME280;37953;52.806;18.270;2022-09-09T13:21:34;100419.16;;;19.53;100.00
51928;BME280;37953;52.806;18.270;2022-09-09T13:24:01;100410.41;;;19.52;100.00
51928;BME280;37953;52.806;18.270;2022-09-09T13:26:30;100412.25;;;19.50;100.00
51928;BME280;37953;52.806;18.270;2022-09-09T13:29:17;100418.44;;;19.49;100.00
51928;BME280;37953;52.806;18.270;2022-09-09T13:31:44;100417.50;;;19.50;100.00
51928;BME280;37953;52.806;18.270;2022-09-09T13:34:32;100417.28;;;19.57;100.00
51928;BME280;37953;52.806;18.270;2022-09-09T13:37:16;100410.25;;;19.57;100.00
51928;BME280;37953;52.806;18.270;2022-09-09T13:39:55;100413.84;;;19.55;100.00
51928;BME280;37953;52.806;18.270;2022-09-09T13:42:29;100414.75;;;19.53;100.00
51928;BME280;37953;52.806;18.270;2022-09-09T13:44:57;100409.47;;;19.53;100.00
51928;BME280;37953;52.806;18.270;2022-09-09T13:47:35;100418.09;;;19.59;100.00
51928;BME280;37953;52.806;18.270;2022-09-09T13:50:27;100419.59;;;19.66;100.00
51928;BME280;37953;52.806;18.270;2022-09-09T13:53:00;100411.53;;;19.70;100.00
51928;BME280;37953;52.806;18.270;2022-09-09T13:55:28;100415.06;;;19.71;100.00
51928;BME280;37953;52.806;18.270;2022-09-09T13:57:56;100410.59;;;19.73;100.00
51928;BME280;37953;52.806;18.270;2022-09-09T14:00:23;100394.16;;;19.65;100.00
51928;BME280;37953;52.806;18.270;2022-09-09T14:02:52;100407.03;;;19.74;100.00
51928;BME280;37953;52.806;18.270;2022-09-09T14:05:20;100399.94;;;19.76;100.00
51928;BME280;37953;52.806;18.270;2022-09-09T14:07:48;100395.50;;;19.77;100.00
51928;BME280;37953;52.806;18.270;2022-09-09T14:10:15;100403.44;;;19.77;100.00
51928;BME280;37953;52.806;18.270;2022-09-09T14:12:41;100402.56;;;19.76;100.00
51928;BME280;37953;52.806;18.270;2022-09-09T14:15:09;100407.78;;;19.78;100.00
51928;BME280;37953;52.806;18.270;2022-09-09T14:17:35;100399.09;;;19.76;100.00
51928;BME280;37953;52.806;18.270;2022-09-09T14:20:03;100414.91;;;19.76;100.00
51928;BME280;37953;52.806;18.270;2022-09-09T14:22:33;100407.03;;;19.74;100.00
51928;BME280;37953;52.806;18.270;2022-09-09T14:24:59;100407.97;;;19.73;100.00
51928;BME280;37953;52.806;18.270;2022-09-09T14:27:25;100397.47;;;19.71;100.00
51928;BME280;37953;52.806;18.270;2022-09-09T14:29:52;100388.91;;;19.65;100.00
51928;BME280;37953;52.806;18.270;2022-09-09T14:32:18;100400.16;;;19.70;100.00
51928;BME280;37953;52.806;18.270;2022-09-09T14:34:45;100401.06;;;19.69;100.00
51928;BME280;37953;52.806;18.270;2022-09-09T14:37:11;100398.38;;;19.70;100.00
51928;BME280;37953;52.806;18.270;2022-09-09T14:39:37;100399.28;;;19.69;100.00
51928;BME280;37953;52.806;18.270;2022-09-09T14:42:03;100397.56;;;19.68;100.00
51928;BME280;37953;52.806;18.270;2022-09-09T14:44:29;100399.31;;;19.68;100.00
51928;BME280;37953;52.806;18.270;2022-09-09T14:46:56;100389.69;;;19.67;100.00
51928;BME280;37953;52.806;18.270;2022-09-09T14:49:22;100395.88;;;19.66;100.00
51928;BME280;37953;52.806;18.270;2022-09-09T14:51:47;100395.03;;;19.65;100.00
51928;BME280;37953;52.806;18.270;2022-09-09T14:54:14;100396.81;;;19.65;100.00
51928;BME280;37953;52.806;18.270;2022-09-09T14:56:42;100397.78;;;19.62;100.00
51928;BME280;37953;52.806;18.270;2022-09-09T14:59:09;100393.47;;;19.60;100.00
51928;BME280;37953;52.806;18.270;2022-09-09T15:01:38;100389.88;;;19.62;100.00
51928;BME280;37953;52.806;18.270;2022-09-09T15:04:05;100389.91;;;19.61;100.00
51928;BME280;37953;52.806;18.270;2022-09-09T15:06:33;100389.13;;;19.59;100.00
51928;BME280;37953;52.806;18.270;2022-09-09T15:09:01;100390.91;;;19.58;100.00
51928;BME280;37953;52.806;18.270;2022-09-09T15:11:29;100393.63;;;19.55;100.00
51928;BME280;37953;52.806;18.270;2022-09-09T15:13:56;100397.13;;;19.56;100.00
51928;BME280;37953;52.806;18.270;2022-09-09T15:16:32;100390.19;;;19.53;100.00
51928;BME280;37953;52.806;18.270;2022-09-09T15:18:59;100396.44;;;19.50;100.00
51928;BME280;37953;52.806;18.270;2022-09-09T15:21:30;100400.88;;;19.48;100.00
51928;BME280;37953;52.806;18.270;2022-09-09T15:24:05;100401.88;;;19.46;100.00
51928;BME280;37953;52.806;18.270;2022-09-09T15:26:32;100406.34;;;19.44;100.00
51928;BME280;37953;52.806;18.270;2022-09-09T15:29:01;100411.66;;;19.42;100.00
51928;BME280;37953;52.806;18.270;2022-09-09T15:31:29;100402.94;;;19.40;100.00
51928;BME280;37953;52.806;18.270;2022-09-09T15:34:00;100406.50;;;19.39;100.00
51928;BME280;37953;52.806;18.270;2022-09-09T15:36:29;100410.03;;;19.38;100.00
51928;BME280;37953;52.806;18.270;2022-09-09T15:38:56;100402.16;;;19.37;100.00
51928;BME280;37953;52.806;18.270;2022-09-09T15:41:22;100408.38;;;19.36;100.00
51928;BME280;37953;52.806;18.270;2022-09-09T15:43:53;100414.66;;;19.31;100.00
51928;BME280;37953;52.806;18.270;2022-09-09T15:51:31;100414.00;;;19.25;100.00
51928;BME280;37953;52.806;18.270;2022-09-09T15:53:58;100402.69;;;19.21;100.00
51928;BME280;37953;52.806;18.270;2022-09-09T15:56:28;100400.19;;;19.18;100.00
51928;BME280;37953;52.806;18.270;2022-09-09T16:01:31;100397.81;;;19.10;100.00
51928;BME280;37953;52.806;18.270;2022-09-09T16:03:58;100410.19;;;19.07;100.00
51928;BME280;37953;52.806;18.270;2022-09-09T16:06:27;100415.59;;;19.04;100.00
51928;BME280;37953;52.806;18.270;2022-09-09T16:08:55;100413.97;;;19.00;100.00
51928;BME280;37953;52.806;18.270;2022-09-09T16:11:24;100408.00;;;18.95;100.00
51928;BME280;37953;52.806;18.270;2022-09-09T16:13:51;100410.72;;;18.91;100.00
51928;BME280;37953;52.806;18.270;2022-09-09T16:16:27;100414.34;;;18.87;100.00
51928;BME280;37953;52.806;18.270;2022-09-09T16:19:00;100417.94;;;18.85;100.00
51928;BME280;37953;52.806;18.270;2022-09-09T16:21:33;100411.06;;;18.81;100.00
51928;BME280;37953;52.806;18.270;2022-09-09T16:24:01;100423.41;;;18.77;100.00
51928;BME280;37953;52.806;18.270;2022-09-09T16:26:32;100406.00;;;18.73;100.00
51928;BME280;37953;52.806;18.270;2022-09-09T16:28:59;100384.59;;;18.57;100.00
51928;BME280;37953;52.806;18.270;2022-09-09T16:31:31;100396.75;;;18.61;100.00
51928;BME280;37953;52.806;18.270;2022-09-09T16:34:00;100407.34;;;18.58;100.00
51928;BME280;37953;52.806;18.270;2022-09-09T16:36:28;100406.50;;;18.58;100.00
51928;BME280;37953;52.806;18.270;2022-09-09T16:38:59;100410.78;;;18.60;100.00
51928;BME280;37953;52.806;18.270;2022-09-09T16:41:27;100410.19;;;18.52;100.00
51928;BME280;37953;52.806;18.270;2022-09-09T16:43:55;100428.41;;;18.58;100.00
51928;BME280;37953;52.806;18.270;2022-09-09T16:46:22;100412.84;;;18.52;100.00
51928;BME280;37953;52.806;18.270;2022-09-09T16:48:50;100400.88;;;18.42;100.00
51928;BME280;37953;52.806;18.270;2022-09-09T16:51:23;100409.56;;;18.44;100.00
51928;BME280;37953;52.806;18.270;2022-09-09T16:54:01;100411.47;;;18.39;100.00
51928;BME280;37953;52.806;18.270;2022-09-09T16:56:30;100422.84;;;18.39;100.00
51928;BME280;37953;52.806;18.270;2022-09-09T16:59:03;100432.28;;;18.46;100.00
51928;BME280;37953;52.806;18.270;2022-09-09T17:01:32;100441.06;;;18.45;100.00
51928;BME280;37953;52.806;18.270;2022-09-09T17:04:00;100444.63;;;18.44;100.00
51928;BME280;37953;52.806;18.270;2022-09-09T17:06:29;100435.91;;;18.42;100.00
51928;BME280;37953;52.806;18.270;2022-09-09T17:09:10;100438.53;;;18.42;100.00
51928;BME280;37953;52.806;18.270;2022-09-09T17:11:38;100448.34;;;18.37;100.00
51928;BME280;37953;52.806;18.270;2022-09-09T17:14:06;100457.25;;;18.33;100.00
51928;BME280;37953;52.806;18.270;2022-09-09T17:16:34;100449.47;;;18.28;100.00
51928;BME280;37953;52.806;18.270;2022-09-09T17:19:00;100453.03;;;18.26;100.00
51928;BME280;37953;52.806;18.270;2022-09-09T17:21:28;100444.44;;;18.21;100.00
51928;BME280;37953;52.806;18.270;2022-09-09T17:23:55;100453.38;;;18.15;100.00
51928;BME280;37953;52.806;18.270;2022-09-09T17:26:29;100455.13;;;18.15;100.00
51928;BME280;37953;52.806;18.270;2022-09-09T17:28:56;100446.56;;;18.08;100.00
51928;BME280;37953;52.806;18.270;2022-09-09T17:31:26;100427.41;;;18.03;100.00